Time;durP1;ratioP1;P1;durP2;ratioP2;P2;SDS_P1;SDS_P2;PMS_P1;PMS_P2;Temp;Humidity;BMP_temperature;BMP_pressure;BME280_temperature;BME280_humidity;BME280_pressure;Samples;Min_cycle;Max_cycle;Signal;HPM_P1;HPM_P2
2023/08/25 00:00:37;;;;;;;15.40;13.85;;;20.50;99.90;;;;;;5010426;28;20096;-56
2023/08/25 00:03:04;;;;;;;15.20;12.95;;;20.40;99.90;;;;;;5010706;28;20571;-53
2023/08/25 00:05:30;;;;;;;16.13;12.52;;;20.50;99.90;;;;;;5011869;28;20466;-55
2023/08/25 00:07:55;;;;;;;13.82;11.55;;;20.40;99.90;;;;;;5010460;28;20037;-54
2023/08/25 00:10:22;;;;;;;19.20;12.68;;;20.50;99.90;;;;;;5010254;28;20026;-52
2023/08/25 00:12:49;;;;;;;19.00;14.10;;;20.50;99.90;;;;;;5010705;28;20041;-51
2023/08/25 00:15:14;;;;;;;21.45;14.23;;;20.50;99.90;;;;;;5010685;28;20489;-52
2023/08/25 00:17:40;;;;;;;15.95;14.25;;;20.50;99.90;;;;;;5013119;28;20129;-50
2023/08/25 00:20:09;;;;;;;16.15;13.85;;;20.40;99.90;;;;;;5010132;28;20117;-51
2023/08/25 00:22:35;;;;;;;18.55;14.02;;;20.50;99.90;;;;;;5010514;28;20034;-56
2023/08/25 00:25:00;;;;;;;19.27;14.70;;;20.50;99.90;;;;;;5007878;28;20076;-52
2023/08/25 00:27:26;;;;;;;14.95;12.52;;;20.40;99.90;;;;;;5011627;28;20104;-53
2023/08/25 00:29:53;;;;;;;16.73;14.73;;;20.40;99.90;;;;;;4996453;28;20022;-54
2023/08/25 00:32:19;;;;;;;13.73;12.32;;;20.40;99.90;;;;;;5008564;28;20383;-57
2023/08/25 00:34:44;;;;;;;13.73;12.32;;;20.40;99.90;;;;;;5010386;28;20026;-55
2023/08/25 00:37:10;;;;;;;20.02;14.77;;;20.40;99.90;;;;;;5010563;28;20072;-56
2023/08/25 00:39:38;;;;;;;17.88;14.40;;;20.40;99.90;;;;;;5011711;28;20033;-57
2023/08/25 00:42:04;;;;;;;15.27;13.68;;;20.40;99.90;;;;;;5010255;28;20201;-53
2023/08/25 00:44:29;;;;;;;18.77;14.20;;;20.40;99.90;;;;;;5010166;28;20485;-55
2023/08/25 00:46:55;;;;;;;15.15;13.60;;;20.40;99.90;;;;;;5010339;28;20028;-56
2023/08/25 00:49:22;;;;;;;19.65;17.60;;;20.40;99.90;;;;;;5010330;28;20069;-58
2023/08/25 00:51:48;;;;;;;22.98;18.45;;;20.50;99.90;;;;;;5010240;28;20018;-54
2023/08/25 00:54:14;;;;;;;20.98;17.02;;;20.50;99.90;;;;;;5010219;28;20116;-58
2023/08/25 00:56:40;;;;;;;21.65;18.00;;;20.50;99.90;;;;;;5011455;28;20521;-56
2023/08/25 00:59:06;;;;;;;25.30;18.02;;;20.40;99.90;;;;;;5013963;28;20540;-55
2023/08/25 01:01:31;;;;;;;21.13;15.75;;;20.40;99.90;;;;;;5013701;28;20029;-57
2023/08/25 01:03:57;;;;;;;17.40;15.13;;;20.30;99.90;;;;;;5013623;28;20033;-57
2023/08/25 01:06:23;;;;;;;23.00;20.70;;;20.30;99.90;;;;;;5014023;28;20034;-55
2023/08/25 01:08:49;;;;;;;19.10;17.13;;;20.20;99.90;;;;;;5013826;28;20402;-57
2023/08/25 01:11:26;;;;;;;23.38;19.58;;;20.20;99.90;;;;;;5013409;28;20048;-57
2023/08/25 01:14:11;;;;;;;26.42;21.25;;;20.20;99.90;;;;;;5014017;28;20072;-54
2023/08/25 01:16:45;;;;;;;22.85;19.65;;;20.10;99.90;;;;;;5013844;28;20407;-55
2023/08/25 01:19:27;;;;;;;19.85;17.35;;;20.10;99.90;;;;;;5013629;28;20025;-55
2023/08/25 01:21:58;;;;;;;21.08;15.43;;;20.10;99.90;;;;;;5013458;28;20034;-56
2023/08/25 01:24:28;;;;;;;17.05;15.27;;;20.00;99.90;;;;;;5013556;28;20029;-56
2023/08/25 01:26:54;;;;;;;16.90;15.30;;;20.10;99.90;;;;;;5015016;28;20034;-57
2023/08/25 01:29:20;;;;;;;21.17;14.95;;;20.00;99.90;;;;;;5014817;28;20025;-58
2023/08/25 01:31:46;;;;;;;20.42;18.17;;;20.00;99.90;;;;;;5013346;28;20029;-57
2023/08/25 01:34:13;;;;;;;22.48;20.15;;;20.00;99.90;;;;;;5013375;28;20112;-56
2023/08/25 01:36:42;;;;;;;26.42;21.17;;;20.10;99.90;;;;;;5013303;28;20048;-56
2023/08/25 01:39:15;;;;;;;34.45;25.95;;;20.10;99.90;;;;;;5013138;28;20214;-58
2023/08/25 01:41:41;;;;;;;26.48;23.42;;;20.10;99.90;;;;;;5013714;28;20025;-54
2023/08/25 01:44:09;;;;;;;30.95;27.02;;;20.00;99.90;;;;;;5013301;28;20029;-55
2023/08/25 01:46:37;;;;;;;29.33;25.10;;;20.00;99.90;;;;;;5013165;28;20049;-54
2023/08/25 01:49:04;;;;;;;32.30;22.58;;;20.00;99.90;;;;;;5013223;28;20021;-58
2023/08/25 01:51:30;;;;;;;32.47;26.05;;;19.90;99.90;;;;;;5012882;28;20323;-54
2023/08/25 01:53:56;;;;;;;28.30;25.33;;;19.80;99.90;;;;;;5013141;28;20389;-54
2023/08/25 01:56:22;;;;;;;35.85;29.33;;;19.80;99.90;;;;;;5013319;28;20036;-53
2023/08/25 01:58:49;;;;;;;28.17;24.83;;;19.90;99.90;;;;;;5013254;28;20659;-58
2023/08/25 02:01:14;;;;;;;52.72;32.63;;;19.90;99.90;;;;;;5012584;28;20493;-58
2023/08/25 02:03:40;;;;;;;32.60;28.55;;;20.00;99.90;;;;;;5014032;28;20152;-56
2023/08/25 02:06:08;;;;;;;24.20;21.63;;;19.90;99.90;;;;;;5012715;28;20371;-55
2023/08/25 02:08:34;;;;;;;44.85;35.03;;;20.00;99.90;;;;;;5012479;28;20028;-55
2023/08/25 02:10:59;;;;;;;45.22;35.65;;;20.00;99.90;;;;;;5012222;28;20061;-59
2023/08/25 02:13:25;;;;;;;46.45;35.00;;;20.00;99.90;;;;;;5012793;28;20026;-57
2023/08/25 02:15:52;;;;;;;40.97;29.17;;;20.00;99.90;;;;;;5012411;28;20030;-57
2023/08/25 02:18:17;;;;;;;53.22;35.08;;;20.10;99.90;;;;;;5012526;28;20205;-57
2023/08/25 02:20:43;;;;;;;54.35;32.90;;;20.00;99.90;;;;;;5012016;28;20124;-57
2023/08/25 02:23:09;;;;;;;47.72;33.65;;;20.00;99.90;;;;;;5012456;28;20426;-52
2023/08/25 02:25:35;;;;;;;42.10;35.47;;;20.10;99.90;;;;;;5012215;28;20216;-57
2023/08/25 02:28:01;;;;;;;45.03;32.72;;;20.10;99.90;;;;;;5012336;28;20432;-58
2023/08/25 02:30:27;;;;;;;54.08;30.10;;;20.00;99.90;;;;;;5011923;28;20087;-54
2023/08/25 02:32:52;;;;;;;36.70;29.15;;;20.00;99.90;;;;;;5012265;28;20018;-56
2023/08/25 02:35:18;;;;;;;34.70;29.33;;;19.90;99.90;;;;;;5012277;28;20157;-55
2023/08/25 02:38:00;;;;;;;38.58;29.48;;;20.00;99.90;;;;;;5012190;28;20026;-55
2023/08/25 02:40:26;;;;;;;29.50;26.20;;;20.00;99.90;;;;;;5012102;28;20026;-53
2023/08/25 02:42:58;;;;;;;33.42;29.52;;;20.00;99.90;;;;;;5011847;28;20399;-55
2023/08/25 02:45:24;;;;;;;81.03;30.98;;;20.00;99.90;;;;;;5011964;28;20076;-55
2023/08/25 02:47:50;;;;;;;53.65;31.60;;;20.00;99.90;;;;;;5012171;28;20056;-56
2023/08/25 02:50:16;;;;;;;38.15;30.25;;;20.00;99.90;;;;;;5011569;28;20041;-56
2023/08/25 02:52:41;;;;;;;71.85;32.60;;;20.00;99.90;;;;;;5013226;28;20030;-54
2023/08/25 02:55:07;;;;;;;59.17;33.42;;;20.00;99.90;;;;;;5011614;28;20092;-58
2023/08/25 02:57:33;;;;;;;49.40;34.60;;;20.00;99.90;;;;;;5011761;28;20092;-56
2023/08/25 02:59:58;;;;;;;74.93;28.45;;;20.00;99.90;;;;;;5011458;28;20022;-54
2023/08/25 03:02:24;;;;;;;39.13;32.38;;;20.00;99.90;;;;;;5012248;28;20478;-57
2023/08/25 03:04:49;;;;;;;34.47;30.98;;;20.00;99.90;;;;;;5011925;28;20021;-55
2023/08/25 03:07:15;;;;;;;37.55;31.45;;;20.00;99.90;;;;;;5011441;28;20030;-53
2023/08/25 03:09:40;;;;;;;30.88;27.00;;;20.00;99.90;;;;;;5011268;28;20022;-53
2023/08/25 03:12:06;;;;;;;32.65;28.85;;;20.00;99.90;;;;;;5011436;28;20290;-53
2023/08/25 03:14:32;;;;;;;67.93;38.38;;;20.00;99.90;;;;;;5011304;28;20535;-55
2023/08/25 03:16:57;;;;;;;102.65;39.20;;;20.00;99.90;;;;;;5011600;28;20061;-52
2023/08/25 03:19:23;;;;;;;52.05;37.08;;;20.00;99.90;;;;;;5010354;28;20079;-58
2023/08/25 03:21:49;;;;;;;43.63;30.75;;;20.00;99.90;;;;;;5011959;28;20037;-53
2023/08/25 03:24:15;;;;;;;35.88;31.55;;;20.00;99.90;;;;;;5013042;28;20033;-55
2023/08/25 03:26:40;;;;;;;32.20;28.77;;;20.00;99.90;;;;;;5011626;28;20489;-54
2023/08/25 03:29:06;;;;;;;47.10;31.27;;;20.00;99.90;;;;;;5011347;28;20058;-58
2023/08/25 03:31:32;;;;;;;36.03;28.85;;;20.10;99.90;;;;;;5010959;28;20032;-53
2023/08/25 03:33:57;;;;;;;88.88;31.10;;;20.00;99.90;;;;;;5011279;28;20057;-56
2023/08/25 03:36:23;;;;;;;48.08;30.60;;;20.10;99.90;;;;;;5011407;28;20060;-55
2023/08/25 03:38:49;;;;;;;38.38;29.88;;;20.10;99.90;;;;;;5011061;28;20034;-56
2023/08/25 03:41:14;;;;;;;48.75;30.65;;;20.10;99.90;;;;;;5010806;28;20034;-55
2023/08/25 03:43:40;;;;;;;60.28;32.28;;;20.10;99.90;;;;;;5011002;28;20124;-54
2023/08/25 03:46:05;;;;;;;38.70;29.73;;;20.10;99.90;;;;;;5010916;28;20485;-56
2023/08/25 03:48:31;;;;;;;35.30;29.80;;;20.10;99.90;;;;;;5010890;28;20022;-57
2023/08/25 03:50:57;;;;;;;36.25;30.33;;;20.10;99.90;;;;;;5010615;28;20025;-57
2023/08/25 03:53:22;;;;;;;57.03;30.77;;;20.10;99.90;;;;;;5010787;28;20026;-56
2023/08/25 03:55:48;;;;;;;39.85;32.83;;;20.20;99.90;;;;;;5011015;28;20025;-55
2023/08/25 03:58:13;;;;;;;151.30;37.40;;;20.20;99.90;;;;;;5010869;28;20030;-56
2023/08/25 04:00:39;;;;;;;38.70;32.08;;;20.20;99.90;;;;;;5011782;28;20034;-55
2023/08/25 04:03:06;;;;;;;74.45;32.85;;;20.20;99.90;;;;;;5010766;28;20109;-57
2023/08/25 04:05:32;;;;;;;38.00;31.70;;;20.20;99.90;;;;;;5010714;28;20072;-52
2023/08/25 04:07:58;;;;;;;55.75;31.00;;;20.10;99.90;;;;;;5010775;28;20096;-52
2023/08/25 04:10:23;;;;;;;40.28;30.20;;;20.20;99.90;;;;;;5010272;28;20478;-55
2023/08/25 04:12:49;;;;;;;34.40;30.20;;;20.20;99.90;;;;;;5010658;28;20397;-56
2023/08/25 04:15:14;;;;;;;39.90;29.80;;;20.20;99.90;;;;;;5011435;28;20030;-56
2023/08/25 04:17:40;;;;;;;44.15;29.52;;;20.20;99.90;;;;;;5010899;28;20022;-57
2023/08/25 04:20:06;;;;;;;57.60;34.38;;;20.20;99.90;;;;;;5010230;28;20084;-59
2023/08/25 04:22:32;;;;;;;39.00;29.73;;;20.30;99.90;;;;;;5010388;28;20087;-57
2023/08/25 04:24:57;;;;;;;85.90;32.72;;;20.20;99.90;;;;;;5010997;28;20109;-58
2023/08/25 04:27:23;;;;;;;102.95;33.55;;;20.30;99.90;;;;;;5010630;28;20603;-56
2023/08/25 04:29:51;;;;;;;141.13;35.33;;;20.30;99.90;;;;;;5010233;28;20018;-55
2023/08/25 04:32:17;;;;;;;89.85;34.88;;;20.20;99.90;;;;;;5014406;28;20026;-53
2023/08/25 04:34:42;;;;;;;111.88;38.72;;;20.20;99.90;;;;;;5014560;28;20048;-57
2023/08/25 04:37:08;;;;;;;78.70;36.13;;;20.20;99.90;;;;;;5014343;28;20030;-58
2023/08/25 04:39:33;;;;;;;102.43;33.60;;;20.20;99.90;;;;;;5014330;28;20500;-57
2023/08/25 04:41:59;;;;;;;75.45;33.88;;;20.10;99.90;;;;;;5013911;28;20066;-56
2023/08/25 04:44:24;;;;;;;33.75;29.80;;;20.00;99.90;;;;;;5014441;28;20505;-54
2023/08/25 04:46:50;;;;;;;38.05;29.63;;;19.90;99.90;;;;;;5014343;28;20485;-57
2023/08/25 04:49:15;;;;;;;45.45;32.08;;;19.80;99.90;;;;;;5014544;28;20010;-56
2023/08/25 04:51:42;;;;;;;42.72;31.10;;;19.90;99.90;;;;;;5013965;28;20032;-56
2023/08/25 04:54:07;;;;;;;44.47;32.20;;;19.90;99.90;;;;;;5014120;28;20056;-54
2023/08/25 04:56:33;;;;;;;49.03;33.08;;;19.90;99.90;;;;;;5014071;28;20057;-56
2023/08/25 04:58:59;;;;;;;44.65;33.67;;;19.90;99.90;;;;;;5013999;28;20054;-56
2023/08/25 05:01:24;;;;;;;47.88;32.13;;;19.90;99.90;;;;;;5013963;28;20351;-52
2023/08/25 05:03:50;;;;;;;46.40;32.72;;;19.90;99.90;;;;;;5014031;28;20409;-56
2023/08/25 05:06:15;;;;;;;54.78;34.78;;;19.90;99.90;;;;;;5014138;28;20444;-56
2023/08/25 05:08:41;;;;;;;52.60;32.55;;;19.80;99.90;;;;;;5014116;28;20544;-57
2023/08/25 05:11:07;;;;;;;45.47;32.70;;;19.90;99.90;;;;;;5013535;28;20040;-53
2023/08/25 05:13:32;;;;;;;37.75;30.67;;;19.80;99.90;;;;;;5013798;28;20045;-57
2023/08/25 05:15:58;;;;;;;52.88;33.75;;;19.90;99.90;;;;;;5013727;28;20021;-57
2023/08/25 05:18:24;;;;;;;68.00;33.92;;;19.90;99.90;;;;;;5021083;22;20047;-49
2023/08/25 05:20:50;;;;;;;57.35;33.15;;;20.00;99.90;;;;;;4994343;28;20026;-49
2023/08/25 05:23:16;;;;;;;48.35;35.08;;;19.90;99.90;;;;;;4977650;28;20060;-47
2023/08/25 05:25:41;;;;;;;60.85;35.83;;;20.00;99.90;;;;;;4977668;28;20036;-50
2023/08/25 05:28:07;;;;;;;53.83;37.30;;;20.00;99.90;;;;;;4995180;28;20034;-46
2023/08/25 05:30:32;;;;;;;37.38;31.02;;;20.00;99.90;;;;;;4977295;28;20022;-49
2023/08/25 05:32:58;;;;;;;40.88;32.35;;;20.00;99.90;;;;;;4977708;28;20537;-51
2023/08/25 05:35:23;;;;;;;45.58;34.42;;;20.00;99.90;;;;;;4977617;28;20023;-52
2023/08/25 05:37:50;;;;;;;37.38;29.70;;;20.10;99.90;;;;;;4993594;28;20405;-47
2023/08/25 05:40:16;;;;;;;41.60;30.23;;;20.10;99.90;;;;;;4977108;28;20538;-46
2023/08/25 05:42:42;;;;;;;44.17;32.25;;;20.10;99.90;;;;;;4976357;28;20536;-46
2023/08/25 05:45:08;;;;;;;43.17;33.30;;;20.10;99.90;;;;;;4977225;28;20031;-47
2023/08/25 05:47:33;;;;;;;45.05;32.25;;;20.20;99.90;;;;;;4977201;28;20077;-46
2023/08/25 05:49:59;;;;;;;40.25;31.55;;;20.20;99.90;;;;;;4994687;28;20034;-48
2023/08/25 05:52:25;;;;;;;48.50;32.25;;;20.20;99.90;;;;;;4977089;28;20028;-50
2023/08/25 05:54:50;;;;;;;48.33;35.08;;;20.20;99.90;;;;;;4993234;28;20130;-46
2023/08/25 05:57:16;;;;;;;44.53;34.80;;;20.20;99.90;;;;;;4993137;28;20073;-47
2023/08/25 05:59:41;;;;;;;48.35;34.55;;;20.20;99.90;;;;;;4992959;28;20069;-47
2023/08/25 06:02:07;;;;;;;43.33;32.75;;;20.10;99.90;;;;;;4976838;28;20030;-48
2023/08/25 06:04:32;;;;;;;44.15;33.38;;;20.10;99.90;;;;;;4976863;28;20035;-49
2023/08/25 06:06:58;;;;;;;48.28;33.17;;;20.10;99.90;;;;;;4977034;28;20421;-47
2023/08/25 06:09:24;;;;;;;43.22;33.35;;;20.20;99.90;;;;;;4976626;28;20022;-46
2023/08/25 06:11:50;;;;;;;38.35;29.98;;;20.20;99.90;;;;;;4976822;28;20030;-49
2023/08/25 06:14:15;;;;;;;37.70;29.20;;;20.20;99.90;;;;;;4994154;28;20391;-45
2023/08/25 06:16:42;;;;;;;35.38;30.27;;;20.20;99.90;;;;;;4993963;28;20026;-46
2023/08/25 06:19:07;;;;;;;36.50;30.67;;;20.20;99.90;;;;;;4976629;28;20034;-46
2023/08/25 06:21:33;;;;;;;40.42;30.17;;;20.20;99.90;;;;;;4976503;28;20402;-46
2023/08/25 06:23:59;;;;;;;35.97;28.02;;;20.20;99.90;;;;;;4976511;28;20074;-46
2023/08/25 06:26:25;;;;;;;30.75;25.05;;;20.20;99.90;;;;;;4992582;28;20136;-45
2023/08/25 06:28:52;;;;;;;26.77;23.17;;;20.30;99.90;;;;;;4992409;28;20379;-50
2023/08/25 06:31:18;;;;;;;30.85;23.55;;;20.30;99.90;;;;;;4976419;28;20281;-47
2023/08/25 06:33:45;;;;;;;26.13;22.77;;;20.30;99.90;;;;;;4993752;28;20030;-50
2023/08/25 06:36:10;;;;;;;25.45;22.60;;;20.30;99.90;;;;;;4976258;28;20033;-50
2023/08/25 06:38:36;;;;;;;27.05;23.25;;;20.40;99.90;;;;;;4994054;28;20045;-46
2023/08/25 06:41:03;;;;;;;26.88;21.13;;;20.50;99.90;;;;;;4992007;28;20674;-46
2023/08/25 06:43:29;;;;;;;27.30;20.55;;;20.50;99.90;;;;;;4976192;28;20402;-50
2023/08/25 06:45:54;;;;;;;22.35;19.67;;;20.60;99.90;;;;;;4976035;28;20034;-44
2023/08/25 06:48:20;;;;;;;28.13;22.42;;;20.60;99.90;;;;;;4979614;28;20505;-46
2023/08/25 06:50:45;;;;;;;24.15;20.65;;;20.60;99.90;;;;;;4990491;28;20037;-47
2023/08/25 06:53:11;;;;;;;25.10;19.90;;;20.60;99.90;;;;;;4993330;28;20441;-46
2023/08/25 06:55:36;;;;;;;19.33;16.25;;;20.60;99.90;;;;;;4991308;28;20369;-46
2023/08/25 06:58:02;;;;;;;18.50;16.50;;;20.60;99.90;;;;;;4992022;28;20026;-46
2023/08/25 07:00:29;;;;;;;17.90;16.02;;;20.60;99.90;;;;;;4967464;28;20027;-46
2023/08/25 07:02:54;;;;;;;19.73;15.38;;;20.60;99.90;;;;;;4960416;28;20030;-45
2023/08/25 07:05:20;;;;;;;18.25;15.02;;;20.60;99.90;;;;;;4973149;28;20033;-46
2023/08/25 07:07:46;;;;;;;17.73;15.80;;;20.60;99.90;;;;;;4971643;28;20053;-47
2023/08/25 07:10:15;;;;;;;20.42;17.17;;;20.70;99.90;;;;;;4973633;28;20031;-46
2023/08/25 07:12:41;;;;;;;18.73;16.73;;;20.80;99.90;;;;;;4956413;28;20066;-46
2023/08/25 07:15:10;;;;;;;26.02;17.42;;;20.80;99.90;;;;;;4973714;28;20046;-47
2023/08/25 07:17:36;;;;;;;20.30;15.90;;;20.80;99.90;;;;;;4956150;28;20228;-51
2023/08/25 07:20:04;;;;;;;19.95;15.82;;;20.90;99.90;;;;;;4960304;28;20022;-43
2023/08/25 07:22:30;;;;;;;17.38;13.77;;;20.90;99.90;;;;;;4959506;28;20497;-46
2023/08/25 07:24:56;;;;;;;20.35;13.80;;;20.90;99.90;;;;;;4975034;28;20092;-50
2023/08/25 07:27:22;;;;;;;18.17;14.02;;;20.90;99.90;;;;;;4991385;28;20117;-44
2023/08/25 07:29:47;;;;;;;17.23;12.15;;;20.90;99.90;;;;;;4992658;28;20073;-44
2023/08/25 07:32:13;;;;;;;20.38;13.18;;;20.90;99.90;;;;;;4958959;28;20033;-44
2023/08/25 07:34:43;;;;;;;16.55;12.68;;;20.90;99.90;;;;;;4991292;28;20433;-46
2023/08/25 07:37:09;;;;;;;13.43;11.98;;;21.00;99.90;;;;;;4955896;28;20081;-47
2023/08/25 07:39:34;;;;;;;14.65;11.68;;;21.00;99.90;;;;;;4973246;28;20026;-46
2023/08/25 07:42:00;;;;;;;11.75;10.57;;;21.10;99.90;;;;;;4985539;28;20030;-44
2023/08/25 07:44:25;;;;;;;13.52;8.27;;;21.10;99.90;;;;;;4992980;28;20093;-47
2023/08/25 07:46:51;;;;;;;11.68;7.72;;;21.20;99.90;;;;;;4974208;28;20026;-50
2023/08/25 07:49:16;;;;;;;15.90;7.28;;;21.10;99.90;;;;;;4974786;28;20058;-48
2023/08/25 07:51:42;;;;;;;9.55;7.15;;;21.20;99.90;;;;;;4975073;28;20064;-45
2023/08/25 07:54:08;;;;;;;7.80;7.00;;;21.20;99.90;;;;;;4992323;28;20022;-45
2023/08/25 07:56:33;;;;;;;15.20;6.18;;;21.40;99.90;;;;;;4992596;28;20026;-45
2023/08/25 07:58:59;;;;;;;10.05;6.72;;;21.40;99.90;;;;;;4959001;28;20030;-46
2023/08/25 08:01:24;;;;;;;10.32;5.68;;;21.60;99.90;;;;;;4992882;28;20034;-46
2023/08/25 08:03:50;;;;;;;9.15;5.65;;;21.70;99.90;;;;;;4974468;28;20019;-49
2023/08/25 08:06:16;;;;;;;9.18;6.03;;;21.80;99.90;;;;;;4991760;28;20068;-46
2023/08/25 08:08:43;;;;;;;13.70;6.28;;;22.00;99.90;;;;;;4992077;28;20054;-45
2023/08/25 08:11:09;;;;;;;7.20;5.57;;;22.10;99.90;;;;;;4974697;28;20037;-57
2023/08/25 08:13:35;;;;;;;7.43;5.15;;;22.30;99.90;;;;;;4973773;28;20022;-46
2023/08/25 08:16:00;;;;;;;11.68;4.78;;;22.80;99.90;;;;;;4991683;28;20053;-49
2023/08/25 08:18:26;;;;;;;7.57;4.43;;;23.40;99.90;;;;;;4974400;28;20038;-48
2023/08/25 08:20:51;;;;;;;11.35;4.53;;;24.00;99.90;;;;;;4958398;28;20608;-46
2023/08/25 08:23:17;;;;;;;10.77;3.97;;;24.70;99.90;;;;;;4974921;28;20089;-46
2023/08/25 08:25:43;;;;;;;8.05;4.53;;;25.40;99.90;;;;;;4991588;28;20041;-49
2023/08/25 08:28:09;;;;;;;9.45;4.47;;;25.50;99.90;;;;;;4992071;28;20059;-50
2023/08/25 08:30:35;;;;;;;10.90;5.82;;;25.90;99.90;;;;;;4974382;28;20077;-47
2023/08/25 08:33:01;;;;;;;8.00;4.20;;;25.70;99.90;;;;;;4991724;28;20053;-51
2023/08/25 08:35:26;;;;;;;16.60;5.32;;;25.10;99.90;;;;;;4991777;28;20491;-46
2023/08/25 08:37:52;;;;;;;10.48;4.47;;;24.70;99.90;;;;;;4974736;28;20512;-51
2023/08/25 08:40:20;;;;;;;11.75;4.70;;;24.30;99.90;;;;;;4974249;28;20398;-45
2023/08/25 08:42:48;;;;;;;10.13;4.70;;;24.30;99.90;;;;;;4992088;28;20486;-51
2023/08/25 08:45:15;;;;;;;10.77;4.22;;;24.60;99.90;;;;;;4974429;28;20035;-49
2023/08/25 08:47:41;;;;;;;7.05;4.00;;;25.60;99.90;;;;;;4974784;28;20026;-50
2023/08/25 08:50:08;;;;;;;9.05;3.53;;;26.30;99.90;;;;;;4974028;28;20031;-49
2023/08/25 08:52:34;;;;;;;5.97;3.00;;;25.90;99.90;;;;;;4974991;28;20030;-52
2023/08/25 08:55:00;;;;;;;5.88;3.30;;;25.30;99.90;;;;;;4958018;28;20022;-52
2023/08/25 08:57:26;;;;;;;9.85;5.20;;;25.20;99.90;;;;;;4974001;28;20037;-50
2023/08/25 08:59:52;;;;;;;9.15;4.50;;;24.80;99.90;;;;;;4973982;28;20061;-51
2023/08/25 09:02:21;;;;;;;6.30;3.65;;;24.40;99.90;;;;;;4973966;28;20026;-50
2023/08/25 09:04:52;;;;;;;6.45;3.80;;;23.90;99.90;;;;;;4991200;28;20046;-47
2023/08/25 09:07:19;;;;;;;9.32;4.22;;;23.50;99.90;;;;;;4954808;28;20557;-48
2023/08/25 09:09:45;;;;;;;4.60;3.70;;;23.40;99.90;;;;;;4923096;28;20031;-48
2023/08/25 09:12:13;;;;;;;5.10;3.67;;;23.90;99.90;;;;;;4939297;28;20030;-49
2023/08/25 09:14:38;;;;;;;5.88;3.33;;;24.40;99.90;;;;;;4956778;28;20019;-48
2023/08/25 09:17:06;;;;;;;6.63;3.70;;;24.80;99.90;;;;;;4974274;28;20117;-48
2023/08/25 09:19:32;;;;;;;8.15;3.58;;;25.00;99.90;;;;;;4994893;28;20109;-49
2023/08/25 09:21:59;;;;;;;12.15;3.30;;;25.30;99.90;;;;;;4977605;28;20381;-43
2023/08/25 09:24:25;;;;;;;30.40;22.15;;;25.30;99.90;;;;;;4993155;28;20036;-48
2023/08/25 09:26:51;;;;;;;5.10;2.83;;;25.20;99.90;;;;;;4975414;28;20081;-45
2023/08/25 09:29:17;;;;;;;6.00;3.83;;;25.00;99.90;;;;;;4984710;28;20030;-46
2023/08/25 09:31:44;;;;;;;7.70;2.70;;;24.90;99.90;;;;;;4996878;28;20101;-50
2023/08/25 09:34:13;;;;;;;4.70;2.58;;;24.90;99.90;;;;;;4977489;28;20053;-46
2023/08/25 09:36:55;;;;;;;3.63;2.70;;;24.80;99.90;;;;;;4974671;28;20516;-45
2023/08/25 09:39:22;;;;;;;5.78;2.70;;;24.80;99.90;;;;;;4942043;28;20086;-48
2023/08/25 09:41:48;;;;;;;4.55;2.80;;;24.80;99.90;;;;;;4975057;28;20089;-50
2023/08/25 09:44:15;;;;;;;2.45;2.25;;;24.90;99.90;;;;;;4991306;28;20097;-51
2023/08/25 09:46:42;;;;;;;5.07;3.45;;;25.00;99.90;;;;;;4976416;28;20022;-44
2023/08/25 09:49:10;;;;;;;4.40;2.33;;;25.10;99.90;;;;;;4960714;28;20027;-49
2023/08/25 09:51:41;;;;;;;5.82;2.45;;;25.20;99.90;;;;;;4977153;28;20497;-51
2023/08/25 09:54:17;;;;;;;3.67;2.40;;;25.20;99.90;;;;;;4976766;28;20034;-45
2023/08/25 09:56:45;;;;;;;6.43;2.40;;;25.30;99.90;;;;;;4977526;28;20097;-46
2023/08/25 09:59:13;;;;;;;7.10;2.30;;;25.30;99.90;;;;;;4977441;28;20030;-47
2023/08/25 10:01:47;;;;;;;2.35;2.25;;;25.10;99.90;;;;;;4994590;28;20536;-45
2023/08/25 10:04:13;;;;;;;7.35;2.58;;;25.00;99.90;;;;;;4977248;28;20038;-50
2023/08/25 10:06:40;;;;;;;4.38;2.40;;;24.90;99.90;;;;;;4993767;28;20034;-44
2023/08/25 10:09:07;;;;;;;3.05;2.65;;;24.90;99.90;;;;;;4945257;28;20042;-48
2023/08/25 10:11:45;;;;;;;4.63;3.22;;;25.00;99.90;;;;;;4959932;28;20026;-46
2023/08/25 10:14:12;;;;;;;2.72;2.50;;;25.10;99.90;;;;;;4976846;28;20500;-47
2023/08/25 10:16:39;;;;;;;4.13;2.50;;;25.20;99.90;;;;;;4993810;28;20065;-47
2023/08/25 10:19:09;;;;;;;4.65;2.13;;;25.40;99.90;;;;;;4976224;28;20038;-49
2023/08/25 10:21:36;;;;;;;4.45;2.83;;;25.60;99.90;;;;;;4960391;28;20486;-56
2023/08/25 10:24:02;;;;;;;2.00;1.90;;;25.90;99.90;;;;;;4975978;28;20041;-50
2023/08/25 10:26:29;;;;;;;2.05;1.95;;;26.00;99.90;;;;;;4993836;28;20034;-48
2023/08/25 10:28:56;;;;;;;10.35;9.25;;;26.00;99.90;;;;;;4993634;28;20069;-50
2023/08/25 10:31:22;;;;;;;20.17;14.55;;;26.20;99.90;;;;;;4960358;28;20109;-50
2023/08/25 10:33:49;;;;;;;3.63;2.33;;;26.40;99.90;;;;;;4976428;28;20062;-51
2023/08/25 10:36:20;;;;;;;3.20;2.28;;;26.40;99.90;;;;;;4976270;28;20034;-47
2023/08/25 10:38:46;;;;;;;3.47;1.90;;;26.30;99.90;;;;;;4976101;28;20031;-50
2023/08/25 10:41:15;;;;;;;2.42;2.20;;;26.30;99.90;;;;;;4976381;28;20081;-49
2023/08/25 10:43:44;;;;;;;4.20;2.78;;;26.20;99.90;;;;;;4976130;28;20126;-49
2023/08/25 10:46:10;;;;;;;4.43;2.30;;;26.20;99.90;;;;;;4976269;28;20027;-51
2023/08/25 10:48:40;;;;;;;2.60;2.10;;;26.00;99.90;;;;;;4976613;28;20022;-51
2023/08/25 10:51:17;;;;;;;3.15;2.95;;;25.80;99.90;;;;;;4994600;28;20102;-45
2023/08/25 10:53:49;;;;;;;2.22;1.92;;;25.80;99.90;;;;;;4976149;28;20085;-47
2023/08/25 10:56:25;;;;;;;2.15;1.90;;;25.70;99.90;;;;;;4977327;28;20037;-47
2023/08/25 10:59:09;;;;;;;3.45;2.20;;;25.60;99.90;;;;;;4993371;28;20058;-45
2023/08/25 11:01:37;;;;;;;2.50;2.22;;;25.70;99.90;;;;;;4976104;28;20498;-44
2023/08/25 11:04:07;;;;;;;8.32;2.28;;;25.60;99.90;;;;;;4993644;28;20037;-46
2023/08/25 11:06:38;;;;;;;5.18;2.20;;;25.60;99.90;;;;;;4993281;28;20033;-45
2023/08/25 11:09:03;;;;;;;3.05;1.90;;;25.50;99.90;;;;;;4976283;28;20504;-45
2023/08/25 11:11:33;;;;;;;8.27;2.58;;;25.50;99.90;;;;;;4993144;28;20027;-44
2023/08/25 11:13:59;;;;;;;2.92;2.42;;;25.40;99.90;;;;;;4976167;28;20026;-48
2023/08/25 11:16:25;;;;;;;6.43;2.20;;;25.40;99.90;;;;;;4975865;28;20041;-47
2023/08/25 11:18:51;;;;;;;2.67;2.38;;;25.40;99.90;;;;;;5045216;22;20099;-55
2023/08/25 11:21:16;;;;;;;2.58;1.92;;;25.50;99.90;;;;;;5031681;28;20400;-53
2023/08/25 11:23:44;;;;;;;2.63;2.40;;;25.50;99.90;;;;;;5013156;28;20112;-54
2023/08/25 11:26:15;;;;;;;5.90;3.67;;;25.50;99.90;;;;;;5014131;28;20488;-51
2023/08/25 11:28:41;;;;;;;5.88;2.22;;;25.50;99.90;;;;;;5032226;28;20025;-51
2023/08/25 11:31:07;;;;;;;2.97;2.30;;;25.50;99.90;;;;;;5032113;28;20388;-55
2023/08/25 11:33:33;;;;;;;3.13;1.92;;;25.40;99.90;;;;;;5014176;28;20029;-53
2023/08/25 11:36:03;;;;;;;6.72;2.58;;;25.50;99.90;;;;;;5014726;28;20032;-57
2023/08/25 11:38:31;;;;;;;3.90;2.42;;;25.50;99.90;;;;;;5014298;28;20021;-55
2023/08/25 11:40:57;;;;;;;3.83;2.50;;;25.50;99.90;;;;;;5013639;28;20033;-51
2023/08/25 11:43:32;;;;;;;5.10;2.63;;;25.60;99.90;;;;;;5014403;28;20121;-50
2023/08/25 11:45:58;;;;;;;;;;;25.60;99.90;;;;;;5014917;28;20460;-54
2023/08/25 11:48:24;;;;;;;4.78;2.00;;;25.60;99.90;;;;;;5014281;28;19940;-56
2023/08/25 11:50:50;;;;;;;4.28;1.98;;;25.70;99.90;;;;;;5014204;28;20428;-53
2023/08/25 11:53:16;;;;;;;2.42;2.08;;;25.70;99.90;;;;;;5015020;28;20087;-52
2023/08/25 11:55:42;;;;;;;3.58;2.00;;;25.70;99.90;;;;;;5032015;28;20026;-56
2023/08/25 11:58:09;;;;;;;3.08;2.72;;;25.60;99.90;;;;;;5031826;28;20033;-54
2023/08/25 12:00:37;;;;;;;5.97;3.00;;;25.60;99.90;;;;;;4997735;28;20030;-55
2023/08/25 12:03:03;;;;;;;7.82;2.47;;;25.70;99.90;;;;;;5014185;28;20029;-55
2023/08/25 12:05:30;;;;;;;3.40;2.53;;;25.70;99.90;;;;;;5013837;28;20026;-52
2023/08/25 12:08:02;;;;;;;3.17;1.95;;;25.80;99.90;;;;;;4997774;28;20053;-54
2023/08/25 12:10:35;;;;;;;4.63;2.13;;;25.80;99.90;;;;;;5013684;28;20344;-56
2023/08/25 12:13:01;;;;;;;3.55;2.63;;;25.90;99.90;;;;;;5013866;28;20412;-53
2023/08/25 12:15:37;;;;;;;2.22;2.03;;;25.90;99.90;;;;;;5013689;28;20028;-55
2023/08/25 12:18:04;;;;;;;5.03;2.30;;;25.90;99.90;;;;;;5013669;28;20033;-53
2023/08/25 12:20:29;;;;;;;1.98;1.88;;;25.90;99.90;;;;;;5013522;28;20021;-55
2023/08/25 12:22:59;;;;;;;4.72;4.32;;;25.80;99.90;;;;;;5031696;28;20041;-55
2023/08/25 12:25:25;;;;;;;7.00;4.25;;;25.70;99.90;;;;;;5013617;28;20428;-52
2023/08/25 12:27:51;;;;;;;3.70;3.17;;;25.60;99.90;;;;;;5013353;28;20025;-55
2023/08/25 12:30:17;;;;;;;4.18;2.38;;;25.60;99.90;;;;;;5013496;28;20037;-55